This is the latest recevied weather packets stored in our database for station/object KY0TEQ-13. If no packets are shown the sender has not sent any weather packets the latest 10 day(s).
| Time | Temp. | Humidity | Pressure | Rain* | Wind** | Luminosity | Snow |
|---|---|---|---|---|---|---|---|
| 1777957327 | 7.78° C | 41% | 1297.3 hPa | 0 mm | - | 0 W/m² | - |
| 1777957022 | 8.89° C | 41% | 1297.6 hPa | 0 mm | - | 0 W/m² | - |
| 1777956720 | 7.78° C | 39% | 1297.4 hPa | 0 mm | - | 0 W/m² | - |
| 1777956416 | 7.78° C | 43% | 1297.6 hPa | 0 mm | - | 0 W/m² | - |
| 1777956113 | 7.22° C | 43% | 1297.7 hPa | 0 mm | - | 0 W/m² | - |
| 1777955809 | 7.22° C | 45% | 1297.4 hPa | 0 mm | - | 0 W/m² | - |
| 1777955506 | 7.22° C | 44% | 1297.4 hPa | 0 mm | - | 0 W/m² | - |
| 1777955202 | 7.78° C | 42% | 1297.4 hPa | 0 mm | - | 0 W/m² | - |
| 1777954900 | 8.33° C | 42% | 1297.6 hPa | 0 mm | - | 0 W/m² | - |
| 1777954596 | 8.33° C | 40% | 1297.4 hPa | 0 mm | - | 0 W/m² | - |
| 1777954294 | 8.33° C | 41% | 1297.3 hPa | 0 mm | - | 0 W/m² | - |
| 1777953990 | 8.89° C | 36% | 1297.4 hPa | 0 mm | - | 0 W/m² | - |
| 1777953384 | 8.33° C | 37% | 1297.4 hPa | 0 mm | - | 0 W/m² | - |
| 1777943699 | 15° C | 23% | 1296.6 hPa | 0 mm | - | 34 W/m² | - |
| 1777941265 | 15.56° C | 21% | 1296.8 hPa | 0 mm | - | 82 W/m² | - |
| 1777940356 | 15.56° C | 20% | 1297.2 hPa | 0 mm | - | 110 W/m² | - |
| 1777940053 | 15.56° C | 19% | 1297 hPa | 0 mm | - | 123 W/m² | - |
| 1777939750 | 15.56° C | 19% | 1297.1 hPa | 0 mm | - | 114 W/m² | - |
| 1777934598 | 16.67° C | 19% | 1297.4 hPa | 0 mm | - | 256 W/m² | - |
| 1777934294 | 16.67° C | 18% | 1297.6 hPa | 0 mm | - | 261 W/m² | - |
| 1777933687 | 16.67° C | 17% | 1297.7 hPa | 0 mm | - | 289 W/m² | - |
| 1777933081 | 16.67° C | 21% | 1297.9 hPa | 0 mm | - | 269 W/m² | - |
| 1777932475 | 16.67° C | 26% | 1297.8 hPa | 0 mm | - | 352 W/m² | - |
| 1777932172 | 16.67° C | 24% | 1298.1 hPa | 0 mm | - | 367 W/m² | - |
| 1777931869 | 16.67° C | 25% | 1298.1 hPa | 0 mm | - | 267 W/m² | - |
* Rain latest hour (hover to see other rain measurements)
** Current wind speed in m/s (hover to see current wind gust speed)